sensor_id;sensor_type;location;lat;lon;timestamp;temperature;humidity
6256;DHT22;3161;48.794;9.784;2023-06-04T00:00:39;16.00;92.50
6256;DHT22;3161;48.794;9.784;2023-06-04T00:03:06;16.00;92.50
6256;DHT22;3161;48.794;9.784;2023-06-04T00:05:34;15.90;92.10
6256;DHT22;3161;48.794;9.784;2023-06-04T00:08:01;15.90;91.90
6256;DHT22;3161;48.794;9.784;2023-06-04T00:10:29;15.90;91.70
6256;DHT22;3161;48.794;9.784;2023-06-04T00:12:57;15.90;91.80
6256;DHT22;3161;48.794;9.784;2023-06-04T00:15:25;15.80;91.80
6256;DHT22;3161;48.794;9.784;2023-06-04T00:17:52;15.80;92.30
6256;DHT22;3161;48.794;9.784;2023-06-04T00:20:20;15.80;92.00
6256;DHT22;3161;48.794;9.784;2023-06-04T00:22:48;15.70;91.70
6256;DHT22;3161;48.794;9.784;2023-06-04T00:25:15;15.70;91.60
6256;DHT22;3161;48.794;9.784;2023-06-04T00:27:43;15.80;91.20
6256;DHT22;3161;48.794;9.784;2023-06-04T00:30:11;15.70;91.10
6256;DHT22;3161;48.794;9.784;2023-06-04T00:32:39;15.70;90.90
6256;DHT22;3161;48.794;9.784;2023-06-04T00:35:07;15.80;90.50
6256;DHT22;3161;48.794;9.784;2023-06-04T00:37:36;15.80;90.40
6256;DHT22;3161;48.794;9.784;2023-06-04T00:40:04;15.80;90.40
6256;DHT22;3161;48.794;9.784;2023-06-04T00:42:32;15.80;90.40
6256;DHT22;3161;48.794;9.784;2023-06-04T00:45:00;15.80;90.10
6256;DHT22;3161;48.794;9.784;2023-06-04T00:47:27;15.70;90.10
6256;DHT22;3161;48.794;9.784;2023-06-04T00:49:56;15.70;90.30
6256;DHT22;3161;48.794;9.784;2023-06-04T00:52:25;15.60;90.40
6256;DHT22;3161;48.794;9.784;2023-06-04T00:54:53;15.60;90.40
6256;DHT22;3161;48.794;9.784;2023-06-04T00:57:22;15.60;90.30
6256;DHT22;3161;48.794;9.784;2023-06-04T00:59:50;15.60;90.30
6256;DHT22;3161;48.794;9.784;2023-06-04T01:02:21;15.50;90.40
6256;DHT22;3161;48.794;9.784;2023-06-04T01:05:08;15.50;90.30
6256;DHT22;3161;48.794;9.784;2023-06-04T01:07:36;15.50;90.80
6256;DHT22;3161;48.794;9.784;2023-06-04T01:10:07;15.40;90.70
6256;DHT22;3161;48.794;9.784;2023-06-04T01:12:35;15.40;90.40
6256;DHT22;3161;48.794;9.784;2023-06-04T01:15:04;15.30;90.10
6256;DHT22;3161;48.794;9.784;2023-06-04T01:17:37;15.30;89.90
6256;DHT22;3161;48.794;9.784;2023-06-04T01:20:13;15.30;89.50
6256;DHT22;3161;48.794;9.784;2023-06-04T01:22:47;15.30;88.90
6256;DHT22;3161;48.794;9.784;2023-06-04T01:25:20;15.30;88.90
6256;DHT22;3161;48.794;9.784;2023-06-04T01:27:53;15.20;89.30
6256;DHT22;3161;48.794;9.784;2023-06-04T01:30:31;15.20;88.30
6256;DHT22;3161;48.794;9.784;2023-06-04T01:32:56;15.20;88.20
6256;DHT22;3161;48.794;9.784;2023-06-04T01:35:25;15.20;87.80
6256;DHT22;3161;48.794;9.784;2023-06-04T01:37:53;15.10;88.10
6256;DHT22;3161;48.794;9.784;2023-06-04T01:40:22;15.10;88.20
6256;DHT22;3161;48.794;9.784;2023-06-04T01:42:50;15.10;87.50
6256;DHT22;3161;48.794;9.784;2023-06-04T01:45:17;15.00;87.30
6256;DHT22;3161;48.794;9.784;2023-06-04T01:47:45;15.00;87.80
6256;DHT22;3161;48.794;9.784;2023-06-04T01:50:13;15.00;88.00
6256;DHT22;3161;48.794;9.784;2023-06-04T01:52:40;14.90;87.60
6256;DHT22;3161;48.794;9.784;2023-06-04T01:55:10;14.90;87.40
6256;DHT22;3161;48.794;9.784;2023-06-04T01:57:42;14.90;87.80
6256;DHT22;3161;48.794;9.784;2023-06-04T02:00:15;14.80;89.90
6256;DHT22;3161;48.794;9.784;2023-06-04T02:02:44;14.80;91.00
6256;DHT22;3161;48.794;9.784;2023-06-04T02:05:12;14.70;91.50
6256;DHT22;3161;48.794;9.784;2023-06-04T02:07:42;14.60;92.10
6256;DHT22;3161;48.794;9.784;2023-06-04T02:10:16;14.60;92.60
6256;DHT22;3161;48.794;9.784;2023-06-04T02:15:25;14.50;93.80
6256;DHT22;3161;48.794;9.784;2023-06-04T02:17:59;14.40;93.90
6256;DHT22;3161;48.794;9.784;2023-06-04T02:20:26;14.30;94.30
6256;DHT22;3161;48.794;9.784;2023-06-04T02:22:55;14.30;94.40
6256;DHT22;3161;48.794;9.784;2023-06-04T02:25:23;14.20;94.60
6256;DHT22;3161;48.794;9.784;2023-06-04T02:27:51;14.10;94.80
6256;DHT22;3161;48.794;9.784;2023-06-04T02:30:18;14.00;94.80
6256;DHT22;3161;48.794;9.784;2023-06-04T02:32:46;14.00;95.10
6256;DHT22;3161;48.794;9.784;2023-06-04T02:35:15;13.90;95.50
6256;DHT22;3161;48.794;9.784;2023-06-04T02:37:44;13.90;96.00
6256;DHT22;3161;48.794;9.784;2023-06-04T02:40:12;13.90;95.80
6256;DHT22;3161;48.794;9.784;2023-06-04T02:42:39;13.80;95.90
6256;DHT22;3161;48.794;9.784;2023-06-04T02:45:08;13.70;96.30
6256;DHT22;3161;48.794;9.784;2023-06-04T02:47:35;13.70;96.50
6256;DHT22;3161;48.794;9.784;2023-06-04T02:50:05;13.60;96.40
6256;DHT22;3161;48.794;9.784;2023-06-04T02:52:43;13.60;96.70
6256;DHT22;3161;48.794;9.784;2023-06-04T02:55:11;13.50;97.00
6256;DHT22;3161;48.794;9.784;2023-06-04T02:57:42;13.50;96.90
6256;DHT22;3161;48.794;9.784;2023-06-04T03:00:12;13.40;97.00
6256;DHT22;3161;48.794;9.784;2023-06-04T03:05:11;13.30;96.90
6256;DHT22;3161;48.794;9.784;2023-06-04T03:07:41;13.30;97.10
6256;DHT22;3161;48.794;9.784;2023-06-04T03:10:10;13.30;97.10
6256;DHT22;3161;48.794;9.784;2023-06-04T03:12:38;13.20;97.40
6256;DHT22;3161;48.794;9.784;2023-06-04T03:15:06;13.20;97.60
6256;DHT22;3161;48.794;9.784;2023-06-04T03:17:34;13.10;97.80
6256;DHT22;3161;48.794;9.784;2023-06-04T03:20:02;13.10;97.80
6256;DHT22;3161;48.794;9.784;2023-06-04T03:22:31;13.10;97.80
6256;DHT22;3161;48.794;9.784;2023-06-04T03:25:00;13.00;97.90
6256;DHT22;3161;48.794;9.784;2023-06-04T03:27:27;13.00;98.30
6256;DHT22;3161;48.794;9.784;2023-06-04T03:29:55;13.00;98.20
6256;DHT22;3161;48.794;9.784;2023-06-04T03:32:22;12.90;98.00
6256;DHT22;3161;48.794;9.784;2023-06-04T03:34:50;12.90;98.20
6256;DHT22;3161;48.794;9.784;2023-06-04T03:37:17;12.90;98.20
6256;DHT22;3161;48.794;9.784;2023-06-04T03:39:45;12.80;97.70
6256;DHT22;3161;48.794;9.784;2023-06-04T03:42:13;12.80;97.90
6256;DHT22;3161;48.794;9.784;2023-06-04T03:44:40;12.80;97.50
6256;DHT22;3161;48.794;9.784;2023-06-04T03:47:08;12.80;97.50
6256;DHT22;3161;48.794;9.784;2023-06-04T03:49:35;12.70;97.70
6256;DHT22;3161;48.794;9.784;2023-06-04T03:52:03;12.70;97.80
6256;DHT22;3161;48.794;9.784;2023-06-04T03:54:31;12.70;98.10
6256;DHT22;3161;48.794;9.784;2023-06-04T03:56:58;12.70;98.20
6256;DHT22;3161;48.794;9.784;2023-06-04T03:59:26;12.70;97.70
6256;DHT22;3161;48.794;9.784;2023-06-04T04:01:54;12.70;97.50
6256;DHT22;3161;48.794;9.784;2023-06-04T04:04:21;12.70;97.70
6256;DHT22;3161;48.794;9.784;2023-06-04T04:06:49;12.70;98.10
6256;DHT22;3161;48.794;9.784;2023-06-04T04:09:17;12.60;98.50
6256;DHT22;3161;48.794;9.784;2023-06-04T04:11:45;12.60;98.90
6256;DHT22;3161;48.794;9.784;2023-06-04T04:14:12;12.60;99.20
6256;DHT22;3161;48.794;9.784;2023-06-04T04:16:40;12.60;99.40
6256;DHT22;3161;48.794;9.784;2023-06-04T04:19:07;12.60;99.50
6256;DHT22;3161;48.794;9.784;2023-06-04T04:21:36;12.60;99.50
6256;DHT22;3161;48.794;9.784;2023-06-04T04:24:04;12.60;99.70
6256;DHT22;3161;48.794;9.784;2023-06-04T04:26:32;12.70;99.40
6256;DHT22;3161;48.794;9.784;2023-06-04T04:29:00;12.70;99.10
6256;DHT22;3161;48.794;9.784;2023-06-04T04:31:28;12.70;99.30
6256;DHT22;3161;48.794;9.784;2023-06-04T04:33:57;12.70;99.40
6256;DHT22;3161;48.794;9.784;2023-06-04T04:36:24;12.70;99.90
6256;DHT22;3161;48.794;9.784;2023-06-04T04:38:52;12.80;99.80
6256;DHT22;3161;48.794;9.784;2023-06-04T04:41:24;12.90;99.60
6256;DHT22;3161;48.794;9.784;2023-06-04T04:43:53;13.00;99.00
6256;DHT22;3161;48.794;9.784;2023-06-04T04:46:21;13.00;98.70
6256;DHT22;3161;48.794;9.784;2023-06-04T04:48:48;13.10;99.10
6256;DHT22;3161;48.794;9.784;2023-06-04T04:51:16;13.20;99.20
6256;DHT22;3161;48.794;9.784;2023-06-04T04:53:43;13.30;99.00
6256;DHT22;3161;48.794;9.784;2023-06-04T04:56:11;13.30;98.60
6256;DHT22;3161;48.794;9.784;2023-06-04T04:58:38;13.40;98.80
6256;DHT22;3161;48.794;9.784;2023-06-04T05:01:06;13.50;98.40
6256;DHT22;3161;48.794;9.784;2023-06-04T05:03:33;13.60;97.90
6256;DHT22;3161;48.794;9.784;2023-06-04T05:06:01;13.70;97.50
6256;DHT22;3161;48.794;9.784;2023-06-04T05:08:28;13.80;97.20
6256;DHT22;3161;48.794;9.784;2023-06-04T05:10:56;14.00;97.10
6256;DHT22;3161;48.794;9.784;2023-06-04T05:13:23;14.10;97.20
6256;DHT22;3161;48.794;9.784;2023-06-04T05:15:51;14.20;97.00
6256;DHT22;3161;48.794;9.784;2023-06-04T05:18:19;14.30;96.40
6256;DHT22;3161;48.794;9.784;2023-06-04T05:20:48;14.40;95.00
6256;DHT22;3161;48.794;9.784;2023-06-04T05:23:15;14.50;94.20
6256;DHT22;3161;48.794;9.784;2023-06-04T05:25:45;14.60;93.30
6256;DHT22;3161;48.794;9.784;2023-06-04T05:28:15;14.80;92.10
6256;DHT22;3161;48.794;9.784;2023-06-04T05:30:42;14.90;92.30
6256;DHT22;3161;48.794;9.784;2023-06-04T05:33:10;14.90;91.20
6256;DHT22;3161;48.794;9.784;2023-06-04T05:35:40;15.00;91.00
6256;DHT22;3161;48.794;9.784;2023-06-04T05:38:07;15.10;90.90
6256;DHT22;3161;48.794;9.784;2023-06-04T05:40:35;15.20;91.20
6256;DHT22;3161;48.794;9.784;2023-06-04T05:43:02;15.30;90.90
6256;DHT22;3161;48.794;9.784;2023-06-04T05:45:30;15.40;91.10
6256;DHT22;3161;48.794;9.784;2023-06-04T05:47:57;15.40;91.10
6256;DHT22;3161;48.794;9.784;2023-06-04T05:50:25;15.50;90.70
6256;DHT22;3161;48.794;9.784;2023-06-04T05:52:53;15.50;90.80
6256;DHT22;3161;48.794;9.784;2023-06-04T05:55:20;15.50;90.40
6256;DHT22;3161;48.794;9.784;2023-06-04T05:57:49;15.50;90.50
6256;DHT22;3161;48.794;9.784;2023-06-04T06:00:18;15.60;90.20
6256;DHT22;3161;48.794;9.784;2023-06-04T06:02:46;15.60;90.50
6256;DHT22;3161;48.794;9.784;2023-06-04T06:05:17;15.70;91.40
6256;DHT22;3161;48.794;9.784;2023-06-04T06:07:46;15.90;90.90
6256;DHT22;3161;48.794;9.784;2023-06-04T06:10:13;15.90;90.10
6256;DHT22;3161;48.794;9.784;2023-06-04T06:12:42;16.00;90.50
6256;DHT22;3161;48.794;9.784;2023-06-04T06:15:10;16.00;90.70
6256;DHT22;3161;48.794;9.784;2023-06-04T06:17:39;16.10;90.90
6256;DHT22;3161;48.794;9.784;2023-06-04T06:20:07;16.10;91.50
6256;DHT22;3161;48.794;9.784;2023-06-04T06:22:35;16.20;92.10
6256;DHT22;3161;48.794;9.784;2023-06-04T06:25:03;16.20;91.60
6256;DHT22;3161;48.794;9.784;2023-06-04T06:27:32;16.20;92.30
6256;DHT22;3161;48.794;9.784;2023-06-04T06:30:00;16.30;92.60
6256;DHT22;3161;48.794;9.784;2023-06-04T06:32:27;16.40;92.50
6256;DHT22;3161;48.794;9.784;2023-06-04T06:34:55;16.40;92.10
6256;DHT22;3161;48.794;9.784;2023-06-04T06:37:22;16.60;91.40
6256;DHT22;3161;48.794;9.784;2023-06-04T06:39:50;16.90;91.30
6256;DHT22;3161;48.794;9.784;2023-06-04T06:42:17;16.90;91.20
6256;DHT22;3161;48.794;9.784;2023-06-04T06:44:46;17.10;91.10
6256;DHT22;3161;48.794;9.784;2023-06-04T06:47:13;17.20;90.80
6256;DHT22;3161;48.794;9.784;2023-06-04T06:49:41;17.40;90.50
6256;DHT22;3161;48.794;9.784;2023-06-04T06:52:10;17.70;90.30
6256;DHT22;3161;48.794;9.784;2023-06-04T06:54:37;17.90;90.00
6256;DHT22;3161;48.794;9.784;2023-06-04T06:57:05;18.10;89.60
6256;DHT22;3161;48.794;9.784;2023-06-04T06:59:34;18.20;87.90
6256;DHT22;3161;48.794;9.784;2023-06-04T07:02:03;18.40;88.80
6256;DHT22;3161;48.794;9.784;2023-06-04T07:04:30;18.50;88.50
6256;DHT22;3161;48.794;9.784;2023-06-04T07:06:58;18.50;88.20
6256;DHT22;3161;48.794;9.784;2023-06-04T07:09:26;18.50;88.10
6256;DHT22;3161;48.794;9.784;2023-06-04T07:11:53;18.60;86.70
6256;DHT22;3161;48.794;9.784;2023-06-04T07:14:21;18.60;87.00
6256;DHT22;3161;48.794;9.784;2023-06-04T07:16:48;18.70;88.50
6256;DHT22;3161;48.794;9.784;2023-06-04T07:19:16;18.80;86.20
6256;DHT22;3161;48.794;9.784;2023-06-04T07:21:44;19.00;86.50
6256;DHT22;3161;48.794;9.784;2023-06-04T07:24:11;19.20;85.70
6256;DHT22;3161;48.794;9.784;2023-06-04T07:26:39;19.50;85.30
6256;DHT22;3161;48.794;9.784;2023-06-04T07:29:06;19.70;84.90
6256;DHT22;3161;48.794;9.784;2023-06-04T07:31:34;20.00;85.30
6256;DHT22;3161;48.794;9.784;2023-06-04T07:34:01;20.40;85.50
6256;DHT22;3161;48.794;9.784;2023-06-04T07:36:29;20.60;84.20
6256;DHT22;3161;48.794;9.784;2023-06-04T07:38:57;20.80;81.40
6256;DHT22;3161;48.794;9.784;2023-06-04T07:41:25;21.10;81.70
6256;DHT22;3161;48.794;9.784;2023-06-04T07:43:55;21.10;79.10
6256;DHT22;3161;48.794;9.784;2023-06-04T07:46:22;21.20;79.60
6256;DHT22;3161;48.794;9.784;2023-06-04T07:48:50;21.40;79.50
6256;DHT22;3161;48.794;9.784;2023-06-04T07:51:17;21.60;79.30
6256;DHT22;3161;48.794;9.784;2023-06-04T07:53:46;21.80;79.50
6256;DHT22;3161;48.794;9.784;2023-06-04T07:56:13;21.90;78.70
6256;DHT22;3161;48.794;9.784;2023-06-04T07:58:41;22.00;78.30
6256;DHT22;3161;48.794;9.784;2023-06-04T08:01:09;22.10;77.40
6256;DHT22;3161;48.794;9.784;2023-06-04T08:03:37;22.30;78.80
6256;DHT22;3161;48.794;9.784;2023-06-04T08:06:04;22.40;76.10
6256;DHT22;3161;48.794;9.784;2023-06-04T08:08:32;22.60;76.40
6256;DHT22;3161;48.794;9.784;2023-06-04T08:11:00;22.80;75.70
6256;DHT22;3161;48.794;9.784;2023-06-04T08:13:27;22.90;76.60
6256;DHT22;3161;48.794;9.784;2023-06-04T08:15:55;23.00;76.80
6256;DHT22;3161;48.794;9.784;2023-06-04T08:18:22;23.10;75.50
6256;DHT22;3161;48.794;9.784;2023-06-04T08:20:50;23.20;75.70
6256;DHT22;3161;48.794;9.784;2023-06-04T08:23:18;23.40;74.80
6256;DHT22;3161;48.794;9.784;2023-06-04T08:25:45;23.50;74.50
6256;DHT22;3161;48.794;9.784;2023-06-04T08:28:16;23.60;74.60
6256;DHT22;3161;48.794;9.784;2023-06-04T08:30:45;23.80;74.20
6256;DHT22;3161;48.794;9.784;2023-06-04T08:33:13;23.90;72.20
6256;DHT22;3161;48.794;9.784;2023-06-04T08:35:41;24.00;70.20
6256;DHT22;3161;48.794;9.784;2023-06-04T08:38:08;24.10;71.50
6256;DHT22;3161;48.794;9.784;2023-06-04T08:40:36;24.20;70.20
6256;DHT22;3161;48.794;9.784;2023-06-04T08:43:04;24.30;70.00
6256;DHT22;3161;48.794;9.784;2023-06-04T08:45:33;24.40;68.90
6256;DHT22;3161;48.794;9.784;2023-06-04T08:48:03;24.60;70.20
6256;DHT22;3161;48.794;9.784;2023-06-04T08:50:32;24.70;69.60
6256;DHT22;3161;48.794;9.784;2023-06-04T08:53:00;24.80;67.70
6256;DHT22;3161;48.794;9.784;2023-06-04T08:55:28;24.90;67.00
6256;DHT22;3161;48.794;9.784;2023-06-04T08:57:56;25.10;64.90
6256;DHT22;3161;48.794;9.784;2023-06-04T09:00:23;25.20;64.00
6256;DHT22;3161;48.794;9.784;2023-06-04T09:02:51;25.30;62.80
6256;DHT22;3161;48.794;9.784;2023-06-04T09:05:20;25.40;63.30
6256;DHT22;3161;48.794;9.784;2023-06-04T09:07:55;25.40;64.70
6256;DHT22;3161;48.794;9.784;2023-06-04T09:10:22;25.50;61.40
6256;DHT22;3161;48.794;9.784;2023-06-04T09:12:53;25.50;62.10
6256;DHT22;3161;48.794;9.784;2023-06-04T09:15:21;25.60;61.00
6256;DHT22;3161;48.794;9.784;2023-06-04T09:17:48;25.70;61.60
6256;DHT22;3161;48.794;9.784;2023-06-04T09:20:21;25.80;62.00
6256;DHT22;3161;48.794;9.784;2023-06-04T09:22:49;25.80;61.20
6256;DHT22;3161;48.794;9.784;2023-06-04T09:27:52;26.10;58.60
6256;DHT22;3161;48.794;9.784;2023-06-04T09:30:23;26.10;58.40
6256;DHT22;3161;48.794;9.784;2023-06-04T09:32:51;26.10;58.90
6256;DHT22;3161;48.794;9.784;2023-06-04T09:35:19;26.00;59.10
6256;DHT22;3161;48.794;9.784;2023-06-04T09:37:55;26.00;58.70
6256;DHT22;3161;48.794;9.784;2023-06-04T09:40:23;26.10;58.60
6256;DHT22;3161;48.794;9.784;2023-06-04T09:42:52;26.20;57.20
6256;DHT22;3161;48.794;9.784;2023-06-04T09:45:35;26.20;57.10
6256;DHT22;3161;48.794;9.784;2023-06-04T09:48:03;26.20;54.90
6256;DHT22;3161;48.794;9.784;2023-06-04T09:50:32;26.20;57.30
6256;DHT22;3161;48.794;9.784;2023-06-04T09:53:01;26.20;57.80
6256;DHT22;3161;48.794;9.784;2023-06-04T09:55:31;26.20;57.60
6256;DHT22;3161;48.794;9.784;2023-06-04T09:57:59;26.40;57.20
6256;DHT22;3161;48.794;9.784;2023-06-04T10:00:28;26.40;57.20
6256;DHT22;3161;48.794;9.784;2023-06-04T10:03:01;26.50;56.60
6256;DHT22;3161;48.794;9.784;2023-06-04T10:05:33;26.60;56.20
6256;DHT22;3161;48.794;9.784;2023-06-04T10:08:02;26.70;56.60
6256;DHT22;3161;48.794;9.784;2023-06-04T10:10:34;26.80;56.20
6256;DHT22;3161;48.794;9.784;2023-06-04T10:13:05;26.80;56.30
6256;DHT22;3161;48.794;9.784;2023-06-04T10:15:32;26.90;56.20
6256;DHT22;3161;48.794;9.784;2023-06-04T10:18:02;26.80;54.90
6256;DHT22;3161;48.794;9.784;2023-06-04T10:20:31;26.80;54.90
6256;DHT22;3161;48.794;9.784;2023-06-04T10:22:59;26.90;55.50
6256;DHT22;3161;48.794;9.784;2023-06-04T10:25:28;27.00;53.80
6256;DHT22;3161;48.794;9.784;2023-06-04T10:27:56;27.00;53.60
6256;DHT22;3161;48.794;9.784;2023-06-04T10:30:24;27.10;53.60
6256;DHT22;3161;48.794;9.784;2023-06-04T10:32:53;27.10;54.10
6256;DHT22;3161;48.794;9.784;2023-06-04T10:35:33;27.00;54.40
6256;DHT22;3161;48.794;9.784;2023-06-04T10:38:09;27.00;54.50
6256;DHT22;3161;48.794;9.784;2023-06-04T10:40:37;27.20;54.60
6256;DHT22;3161;48.794;9.784;2023-06-04T10:43:06;27.20;54.30
6256;DHT22;3161;48.794;9.784;2023-06-04T10:45:35;27.20;53.90
6256;DHT22;3161;48.794;9.784;2023-06-04T10:48:07;27.30;53.80
6256;DHT22;3161;48.794;9.784;2023-06-04T10:50:47;27.40;52.70
6256;DHT22;3161;48.794;9.784;2023-06-04T10:53:04;27.30;52.20
6256;DHT22;3161;48.794;9.784;2023-06-04T10:55:32;27.40;53.10
6256;DHT22;3161;48.794;9.784;2023-06-04T10:58:02;27.30;52.80
6256;DHT22;3161;48.794;9.784;2023-06-04T11:00:44;27.30;53.70
6256;DHT22;3161;48.794;9.784;2023-06-04T11:03:05;27.20;52.50
6256;DHT22;3161;48.794;9.784;2023-06-04T11:05:37;27.10;52.80
6256;DHT22;3161;48.794;9.784;2023-06-04T11:08:06;27.20;53.90
6256;DHT22;3161;48.794;9.784;2023-06-04T11:10:35;27.20;53.10
6256;DHT22;3161;48.794;9.784;2023-06-04T11:13:03;27.30;52.50
6256;DHT22;3161;48.794;9.784;2023-06-04T11:15:43;27.30;52.70
6256;DHT22;3161;48.794;9.784;2023-06-04T11:18:18;27.40;53.00
6256;DHT22;3161;48.794;9.784;2023-06-04T11:20:58;27.40;51.40
6256;DHT22;3161;48.794;9.784;2023-06-04T11:23:19;27.30;50.90
6256;DHT22;3161;48.794;9.784;2023-06-04T11:25:48;27.30;51.00
6256;DHT22;3161;48.794;9.784;2023-06-04T11:28:18;27.30;51.70
6256;DHT22;3161;48.794;9.784;2023-06-04T11:31:01;27.20;51.20
6256;DHT22;3161;48.794;9.784;2023-06-04T11:33:30;27.30;51.00
6256;DHT22;3161;48.794;9.784;2023-06-04T11:35:57;27.30;51.80
6256;DHT22;3161;48.794;9.784;2023-06-04T11:38:25;27.30;51.80
6256;DHT22;3161;48.794;9.784;2023-06-04T11:40:57;27.30;48.90
6256;DHT22;3161;48.794;9.784;2023-06-04T11:43:26;27.20;49.50
6256;DHT22;3161;48.794;9.784;2023-06-04T11:45:54;27.20;51.10
6256;DHT22;3161;48.794;9.784;2023-06-04T11:48:22;27.10;50.00
6256;DHT22;3161;48.794;9.784;2023-06-04T11:50:50;27.00;51.00
6256;DHT22;3161;48.794;9.784;2023-06-04T11:53:17;27.10;49.70
6256;DHT22;3161;48.794;9.784;2023-06-04T11:55:45;27.10;50.60
6256;DHT22;3161;48.794;9.784;2023-06-04T11:58:13;27.20;50.40
6256;DHT22;3161;48.794;9.784;2023-06-04T12:00:42;27.20;49.30
6256;DHT22;3161;48.794;9.784;2023-06-04T12:03:10;27.20;48.80
6256;DHT22;3161;48.794;9.784;2023-06-04T12:05:37;27.20;48.50
6256;DHT22;3161;48.794;9.784;2023-06-04T12:08:06;27.30;48.10
6256;DHT22;3161;48.794;9.784;2023-06-04T12:10:40;27.30;48.30
6256;DHT22;3161;48.794;9.784;2023-06-04T12:13:09;27.30;48.40
6256;DHT22;3161;48.794;9.784;2023-06-04T12:15:36;27.40;49.30
6256;DHT22;3161;48.794;9.784;2023-06-04T12:18:04;27.40;49.40
6256;DHT22;3161;48.794;9.784;2023-06-04T12:20:40;27.50;49.20
6256;DHT22;3161;48.794;9.784;2023-06-04T12:23:08;27.40;47.50
6256;DHT22;3161;48.794;9.784;2023-06-04T12:25:35;27.30;48.70
6256;DHT22;3161;48.794;9.784;2023-06-04T12:28:16;27.40;47.90
6256;DHT22;3161;48.794;9.784;2023-06-04T12:30:39;27.40;47.70
6256;DHT22;3161;48.794;9.784;2023-06-04T12:33:06;27.40;48.50
6256;DHT22;3161;48.794;9.784;2023-06-04T12:35:34;27.40;49.00
6256;DHT22;3161;48.794;9.784;2023-06-04T12:38:05;27.50;48.90
6256;DHT22;3161;48.794;9.784;2023-06-04T12:40:34;27.50;47.90
6256;DHT22;3161;48.794;9.784;2023-06-04T12:43:02;27.60;47.10
6256;DHT22;3161;48.794;9.784;2023-06-04T12:45:29;27.80;47.60
6256;DHT22;3161;48.794;9.784;2023-06-04T12:47:57;28.10;47.50
6256;DHT22;3161;48.794;9.784;2023-06-04T12:50:24;28.50;45.80
6256;DHT22;3161;48.794;9.784;2023-06-04T12:52:52;28.60;45.60
6256;DHT22;3161;48.794;9.784;2023-06-04T12:55:19;28.60;46.40
6256;DHT22;3161;48.794;9.784;2023-06-04T12:57:47;28.50;45.80
6256;DHT22;3161;48.794;9.784;2023-06-04T13:00:15;28.50;46.00
6256;DHT22;3161;48.794;9.784;2023-06-04T13:02:43;28.60;44.70
6256;DHT22;3161;48.794;9.784;2023-06-04T13:05:10;28.80;44.00
6256;DHT22;3161;48.794;9.784;2023-06-04T13:07:38;29.10;45.00
6256;DHT22;3161;48.794;9.784;2023-06-04T13:10:06;29.50;43.40
6256;DHT22;3161;48.794;9.784;2023-06-04T13:12:34;30.10;42.40
6256;DHT22;3161;48.794;9.784;2023-06-04T13:15:01;30.70;42.10
6256;DHT22;3161;48.794;9.784;2023-06-04T13:17:29;31.20;40.80
6256;DHT22;3161;48.794;9.784;2023-06-04T13:19:56;31.80;39.30
6256;DHT22;3161;48.794;9.784;2023-06-04T13:22:24;32.50;37.80
6256;DHT22;3161;48.794;9.784;2023-06-04T13:24:51;33.10;38.30
6256;DHT22;3161;48.794;9.784;2023-06-04T13:27:19;33.80;38.20
6256;DHT22;3161;48.794;9.784;2023-06-04T13:29:46;34.70;37.10
6256;DHT22;3161;48.794;9.784;2023-06-04T13:32:14;35.70;36.00
6256;DHT22;3161;48.794;9.784;2023-06-04T13:34:41;36.60;33.70
6256;DHT22;3161;48.794;9.784;2023-06-04T13:37:09;37.80;32.80
6256;DHT22;3161;48.794;9.784;2023-06-04T13:39:40;38.90;30.00
6256;DHT22;3161;48.794;9.784;2023-06-04T13:42:07;39.70;29.00
6256;DHT22;3161;48.794;9.784;2023-06-04T13:44:35;39.80;28.50
6256;DHT22;3161;48.794;9.784;2023-06-04T13:47:02;39.60;28.40
6256;DHT22;3161;48.794;9.784;2023-06-04T13:49:32;39.10;27.90
6256;DHT22;3161;48.794;9.784;2023-06-04T13:52:01;37.90;28.80
6256;DHT22;3161;48.794;9.784;2023-06-04T13:54:28;36.50;31.70
6256;DHT22;3161;48.794;9.784;2023-06-04T13:56:56;34.80;31.50
6256;DHT22;3161;48.794;9.784;2023-06-04T13:59:24;33.40;33.60
6256;DHT22;3161;48.794;9.784;2023-06-04T14:01:51;32.50;36.20
6256;DHT22;3161;48.794;9.784;2023-06-04T14:04:19;31.80;36.40
6256;DHT22;3161;48.794;9.784;2023-06-04T14:06:46;31.30;38.20
6256;DHT22;3161;48.794;9.784;2023-06-04T14:09:14;30.90;36.80
6256;DHT22;3161;48.794;9.784;2023-06-04T14:11:42;30.50;38.10
6256;DHT22;3161;48.794;9.784;2023-06-04T14:14:10;30.30;36.90
6256;DHT22;3161;48.794;9.784;2023-06-04T14:16:37;30.10;38.20
6256;DHT22;3161;48.794;9.784;2023-06-04T14:19:05;29.80;38.50
6256;DHT22;3161;48.794;9.784;2023-06-04T14:21:32;29.50;38.30
6256;DHT22;3161;48.794;9.784;2023-06-04T14:24:00;29.20;38.30
6256;DHT22;3161;48.794;9.784;2023-06-04T14:26:27;29.10;37.20
6256;DHT22;3161;48.794;9.784;2023-06-04T14:28:56;28.90;38.10
6256;DHT22;3161;48.794;9.784;2023-06-04T14:31:23;28.90;39.10
6256;DHT22;3161;48.794;9.784;2023-06-04T14:33:51;28.80;38.70
6256;DHT22;3161;48.794;9.784;2023-06-04T14:36:19;28.80;38.70
6256;DHT22;3161;48.794;9.784;2023-06-04T14:38:46;28.70;38.90
6256;DHT22;3161;48.794;9.784;2023-06-04T14:41:15;28.60;38.20
6256;DHT22;3161;48.794;9.784;2023-06-04T14:43:43;28.50;38.90
6256;DHT22;3161;48.794;9.784;2023-06-04T14:46:10;28.30;38.60
6256;DHT22;3161;48.794;9.784;2023-06-04T14:48:38;28.30;39.40
6256;DHT22;3161;48.794;9.784;2023-06-04T14:51:06;28.20;40.10
6256;DHT22;3161;48.794;9.784;2023-06-04T14:53:33;28.10;40.60
6256;DHT22;3161;48.794;9.784;2023-06-04T14:56:01;28.10;39.70
6256;DHT22;3161;48.794;9.784;2023-06-04T14:58:28;28.00;40.50
6256;DHT22;3161;48.794;9.784;2023-06-04T15:00:56;27.90;41.20
6256;DHT22;3161;48.794;9.784;2023-06-04T15:03:25;27.80;40.40
6256;DHT22;3161;48.794;9.784;2023-06-04T15:05:53;27.80;41.20
6256;DHT22;3161;48.794;9.784;2023-06-04T15:08:20;27.80;41.40
6256;DHT22;3161;48.794;9.784;2023-06-04T15:10:48;27.70;41.80
6256;DHT22;3161;48.794;9.784;2023-06-04T15:13:16;27.60;41.90
6256;DHT22;3161;48.794;9.784;2023-06-04T15:15:43;27.60;41.90
6256;DHT22;3161;48.794;9.784;2023-06-04T15:18:11;27.50;41.80
6256;DHT22;3161;48.794;9.784;2023-06-04T15:20:38;27.40;41.40
6256;DHT22;3161;48.794;9.784;2023-06-04T15:23:06;27.40;41.50
6256;DHT22;3161;48.794;9.784;2023-06-04T15:25:33;27.20;40.60
6256;DHT22;3161;48.794;9.784;2023-06-04T15:28:01;27.20;41.20
6256;DHT22;3161;48.794;9.784;2023-06-04T15:30:28;27.10;41.50
6256;DHT22;3161;48.794;9.784;2023-06-04T15:32:56;27.00;41.40
6256;DHT22;3161;48.794;9.784;2023-06-04T15:35:25;27.00;42.40
6256;DHT22;3161;48.794;9.784;2023-06-04T15:37:53;27.00;40.90
6256;DHT22;3161;48.794;9.784;2023-06-04T15:40:21;26.90;41.30
6256;DHT22;3161;48.794;9.784;2023-06-04T15:42:48;26.90;40.10
6256;DHT22;3161;48.794;9.784;2023-06-04T15:45:16;26.80;41.20
6256;DHT22;3161;48.794;9.784;2023-06-04T15:47:45;26.70;40.90
6256;DHT22;3161;48.794;9.784;2023-06-04T15:50:13;26.60;41.70
6256;DHT22;3161;48.794;9.784;2023-06-04T15:52:40;26.60;42.40
6256;DHT22;3161;48.794;9.784;2023-06-04T15:55:08;26.50;43.10
6256;DHT22;3161;48.794;9.784;2023-06-04T15:57:35;26.40;43.40
6256;DHT22;3161;48.794;9.784;2023-06-04T16:00:03;26.40;43.90
6256;DHT22;3161;48.794;9.784;2023-06-04T16:02:31;26.30;43.50
6256;DHT22;3161;48.794;9.784;2023-06-04T16:04:59;26.20;43.70
6256;DHT22;3161;48.794;9.784;2023-06-04T16:07:26;26.20;43.70
6256;DHT22;3161;48.794;9.784;2023-06-04T16:09:54;26.10;43.50
6256;DHT22;3161;48.794;9.784;2023-06-04T16:12:21;26.00;43.50
6256;DHT22;3161;48.794;9.784;2023-06-04T16:14:49;26.00;43.60
6256;DHT22;3161;48.794;9.784;2023-06-04T16:17:17;26.00;44.80